• Join FlightAware (Why Join?)
  • Login
  • US Flag 
11:36PM EDT


 

Airport Tracker/Info


-or-


 

Live Flight TrackerFlight Track Log ✈ SWA494 ✈ 09-Apr-2013 ✈ KMDW - KHOU

Flight Track Log - Related Links

Times and Time Zones

All times are in EDT time to prevent confusion due to time zone crossing. See the SWA494 flight status page for this flight to view local times or setup timezone preferences in your user account.

Time Position Orientation Groundspeed Altitude Reporting Facility
EDT Latitude Longitude Course Direction KTS MPH feet Rate Location/Type
06:11PM 41.8167 -87.7167 41° Northeast 250 288 3,600  Level Chicago TRACON
06:12PM 41.7500 -87.7333 191° South 242 278 6,300 2,640 Climbing Chicago TRACON
06:14PM 41.6286 -87.8394 213° Southwest 305 351 11,700 2,880 Climbing Chicago Center
06:15PM 41.5478 -87.9086 213° Southwest 340 391 15,100 3,120 Climbing Chicago Center
06:16PM 41.4642 -87.9808 213° Southwest 355 409 18,200 3,000 Climbing Chicago Center
06:17PM 41.3742 -88.0428 207° Southwest 360 414 21,300 2,400 Climbing Chicago Center
06:18PM 41.2631 -88.0786 194° South 393 452 23,300 2,040 Climbing Chicago Center
06:19PM 41.1528 -88.1117 193° South 403 464 25,600 2,160 Climbing Chicago Center
06:20PM 41.0175 -88.1503 192° South 415 478 27,800 1,740 Climbing Chicago Center
06:21PM 40.9014 -88.1844 193° South 426 490 29,300 1,680 Climbing Chicago Center
06:22PM 40.7828 -88.2183 192° South 435 501 31,300 1,860 Climbing Chicago Center
06:23PM 40.6661 -88.2511 192° South 433 498 33,200 1,800 Climbing Chicago Center
06:24PM 40.5503 -88.2828 192° South 427 491 35,100 1,800 Climbing Chicago Center
06:25PM 40.4150 -88.3206 192° South 418 481 37,000 1,380 Climbing Chicago Center
06:26PM 40.3069 -88.3539 193° South 405 466 38,000 480 Climbing Chicago Center
06:27PM 40.2106 -88.4278 210° Southwest 400 460 38,000  Level Chicago Center
06:28PM 40.1086 -88.5014 209° Southwest 400 460 38,000  Level Chicago Center
06:29PM 40.0122 -88.5747 210° Southwest 400 460 38,000  Level Chicago Center
06:30PM 39.9147 -88.6439 209° Southwest 397 457 38,000  Level Chicago Center
06:31PM 39.7969 -88.7300 209° Southwest 398 458 38,000  Level Kansas City Center
06:32PM 39.6997 -88.8025 210° Southwest 401 461 38,000  Level Kansas City Center
06:33PM 39.6006 -88.8747 209° Southwest 405 466 38,000  Level Kansas City Center
06:34PM 39.5000 -88.9475 209° Southwest 410 472 38,000  Level Kansas City Center
06:35PM 39.4053 -89.0169 210° Southwest 409 471 38,000  Level Kansas City Center
06:36PM 39.3042 -89.0889 209° Southwest 413 475 38,000  Level Kansas City Center
06:37PM 39.1836 -89.1764 209° Southwest 414 476 38,000  Level Kansas City Center
06:38PM 39.0811 -89.2492 209° Southwest 413 475 38,000  Level Kansas City Center
06:40PM 38.9728 -89.3267 209° Southwest 413 475 38,000  Level Kansas City Center
06:41PM 38.8728 -89.3975 209° Southwest 409 471 38,000  Level Kansas City Center
06:42PM 38.7658 -89.4744 209° Southwest 409 471 38,000  Level Kansas City Center
06:43PM 38.6656 -89.5444 209° Southwest 409 471 38,000  Level Kansas City Center
06:44PM 38.5661 -89.6147 209° Southwest 407 468 38,000  Level Kansas City Center
06:45PM 38.4606 -89.6869 208° Southwest 410 472 38,000  Level Kansas City Center
06:46PM 38.3567 -89.7603 209° Southwest 409 471 38,000  Level Kansas City Center
06:47PM 38.2558 -89.8314 209° Southwest 413 475 38,000  Level Kansas City Center
06:48PM 38.1475 -89.9058 208° Southwest 411 473 38,000  Level Kansas City Center
06:49PM 38.0458 -89.9783 209° Southwest 419 482 38,000  Level Kansas City Center
06:50PM 37.9450 -90.0475 208° Southwest 414 476 38,000  Level Kansas City Center
06:51PM 37.8528 -90.1089 208° Southwest 416 479 38,000  Level Kansas City Center
06:52PM 37.7503 -90.1825 210° Southwest 419 482 38,000  Level Kansas City Center
06:53PM 37.6256 -90.2594 206° Southwest 419 482 38,000  Level Kansas City Center
06:54PM 37.5153 -90.3100 200° South 421 484 38,000  Level Kansas City Center
06:55PM 37.4058 -90.3606 200° South 420 483 38,000  Level Kansas City Center
06:56PM 37.2861 -90.4194 201° Southwest 423 487 38,000  Level Memphis Center
06:57PM 37.1756 -90.4714 201° Southwest 428 493 38,000  Level Memphis Center
06:58PM 37.0653 -90.5258 202° Southwest 428 493 38,000  Level Memphis Center
06:59PM 36.9525 -90.5775 200° South 433 498 38,000  Level Memphis Center
07:00PM 36.8419 -90.6264 199° South 433 498 38,000  Level Memphis Center
07:01PM 36.7314 -90.6753 200° South 433 498 38,000  Level Memphis Center
07:02PM 36.6189 -90.7267 200° South 433 498 38,000  Level Memphis Center
07:03PM 36.5103 -90.7778 201° Southwest 433 498 38,000  Level Memphis Center
07:04PM 36.3953 -90.8286 200° South 433 498 38,000  Level Memphis Center
07:05PM 36.2847 -90.8769 199° South 433 498 38,000  Level Memphis Center
07:06PM 36.1739 -90.9278 200° South 433 498 38,000  Level Memphis Center
07:07PM 36.0717 -90.9861 205° Southwest 427 491 38,000  Level Memphis Center
07:08PM 35.9794 -91.0675 216° Southwest 417 480 38,000  Level Memphis Center
07:09PM 35.8872 -91.1461 215° Southwest 417 480 38,000  Level Memphis Center
07:10PM 35.7908 -91.2297 215° Southwest 417 480 38,000  Level Memphis Center
07:11PM 35.6983 -91.3106 215° Southwest 417 480 38,000  Level Memphis Center
07:12PM 35.6039 -91.3989 217° Southwest 407 468 38,000  Level Memphis Center
07:13PM 35.5092 -91.4767 214° Southwest 407 468 38,000  Level Memphis Center
07:14PM 35.4167 -91.5544 214° Southwest 407 468 38,000  Level Memphis Center
07:15PM 35.3222 -91.6344 215° Southwest 407 468 38,000  Level Memphis Center
07:16PM 35.2294 -91.7144 215° Southwest 407 468 38,000  Level Memphis Center
07:17PM 35.1369 -91.7942 215° Southwest 407 468 38,000  Level Memphis Center
07:18PM 35.0506 -91.8689 215° Southwest 400 460 38,000  Level Memphis Center
07:19PM 34.9433 -91.9150 199° South 395 455 38,000  Level Memphis Center
07:20PM 34.8325 -91.9458 193° South 401 461 38,000  Level Memphis Center
07:21PM 34.7194 -91.9767 193° South 406 467 38,000  Level Memphis Center
07:22PM 34.6128 -92.0000 190° South 406 467 38,000  Level Memphis Center
07:23PM 34.5017 -92.0331 194° South 411 473 38,000  Level Memphis Center
07:24PM 34.3928 -92.0611 192° South 411 473 38,000  Level Memphis Center
07:25PM 34.2819 -92.0892 192° South 411 473 38,000  Level Memphis Center
07:26PM 34.1708 -92.1194 193° South 411 473 38,000  Level Memphis Center
07:28PM 33.9206 -92.1850 192° South 404 465 38,000  Level Fort Worth Center
07:29PM 33.8069 -92.2167 193° South 416 479 38,000  Level Fort Worth Center
07:30PM 33.6956 -92.2458 192° South 416 479 38,000  Level Fort Worth Center
07:31PM 33.5839 -92.2725 191° South 416 479 38,000  Level Fort Worth Center
07:32PM 33.4864 -92.3353 208° Southwest 402 463 38,000  Level Fort Worth Center
07:33PM 33.3931 -92.4028 211° Southwest 402 463 38,000  Level Fort Worth Center
07:34PM 33.2958 -92.4756 212° Southwest 402 463 38,000  Level Fort Worth Center
07:35PM 33.2006 -92.5478 212° Southwest 407 468 38,000  Level Fort Worth Center
07:36PM 33.1053 -92.6200 212° Southwest 407 468 38,000  Level Fort Worth Center
07:37PM 33.0097 -92.6919 212° Southwest 407 468 38,000  Level Fort Worth Center
07:38PM 32.9122 -92.7614 211° Southwest 407 468 38,000  Level Fort Worth Center
07:39PM 32.8067 -92.8411 212° Southwest 412 474 38,000  Level Fort Worth Center
07:40PM 32.7111 -92.9128 212° Southwest 412 474 38,000  Level Fort Worth Center
07:41PM 32.6136 -92.9842 212° Southwest 412 474 38,000  Level Fort Worth Center
07:42PM 32.5158 -93.0553 212° Southwest 417 480 38,000  Level Fort Worth Center
07:43PM 32.4181 -93.1264 212° Southwest 417 480 38,000  Level Fort Worth Center
07:44PM 32.3203 -93.1975 212° Southwest 417 480 38,000  Level Fort Worth Center
07:45PM 32.2244 -93.2683 212° Southwest 412 474 38,000  Level Fort Worth Center
07:47PM 32.0394 -93.4114 213° Southwest 407 468 38,000  Level Houston Center
07:49PM 31.9447 -93.4772 211° Southwest 400 460 38,000  Level Houston Center
07:50PM 31.8294 -93.5625 212° Southwest 407 468 38,000  Level Houston Center
07:51PM 31.7322 -93.6328 212° Southwest 403 464 38,000  Level Houston Center
07:52PM 31.6356 -93.7022 211° Southwest 403 464 38,000  Level Houston Center
07:53PM 31.5394 -93.7708 211° Southwest 403 464 38,000  Level Houston Center
07:54PM 31.4447 -93.8403 212° Southwest 399 459 38,000  Level Houston Center
07:55PM 31.3497 -93.9072 211° Southwest 396 456 38,000 -480 Level Houston Center
07:56PM 31.2553 -93.9758 212° Southwest 396 456 37,100 -1,380 Descending Houston Center
07:57PM 31.1561 -94.0458 211° Southwest 408 470 35,200 -1,740 Descending Houston Center
07:58PM 31.0381 -94.1303 212° Southwest 412 474 33,600 -2,040 Descending Houston Center
07:59PM 30.9436 -94.1983 212° Southwest 411 473 31,000 -2,460 Descending Houston Center
08:00PM 30.8453 -94.2678 211° Southwest 402 463 28,600 -2,280 Descending Houston Center
08:01PM 30.7522 -94.3336 211° Southwest 394 453 26,400 -2,100 Descending Houston Center
08:02PM 30.6697 -94.3928 212° Southwest 378 435 24,300 -2,280 Descending Houston Center
08:02PM 30.6244 -94.4250 211° Southwest 366 421 23,200 -2,160 Descending Houston Center
08:03PM 30.5839 -94.4531 211° Southwest 365 420 22,100 -2,160 Descending Houston Center
08:04PM 30.5125 -94.5028 211° Southwest 353 406 20,400 -2,100 Descending Houston Center
08:04PM 30.4953 -94.5178 217° Southwest 351 404 20,000 -2,280 Descending Houston Center
08:05PM 30.4439 -94.5989 234° Southwest 330 380 17,900 -2,340 Descending Houston Center
08:05PM 30.4333 -94.6158 234° Southwest 332 382 17,600 -1,860 Descending Houston Center
08:06PM 30.3944 -94.6733 232° Southwest 320 368 16,200 -1,860 Descending Houston Center
08:06PM 30.3794 -94.6969 234° Southwest 321 369 15,700 -2,100 Descending Houston Center
08:07PM 30.3414 -94.7550 233° Southwest 312 359 14,100 -2,100 Descending Houston Center
08:07PM 30.3281 -94.7781 236° Southwest 312 359 13,600 -1,140 Descending Houston Center
08:08PM 30.2900 -94.8342 232° Southwest 307 353 13,000 -540 Descending Houston Center
08:08PM 30.2772 -94.8561 236° Southwest 306 352 13,100  Climbing Houston Center
08:09PM 30.2389 -94.9133 232° Southwest 308 354 13,000 -300 Descending Houston Center
08:09PM 30.2258 -94.9356 236° Southwest 308 354 12,800 -1,020 Descending Houston Center
08:10PM 30.1878 -94.9947 233° Southwest 310 357 12,000 -900 Descending Houston Center
08:10PM 30.1742 -95.0153 233° Southwest 311 358 11,900 -1,020 Descending Houston Center
08:11PM 30.1378 -95.0661 230° Southwest 306 352 11,100 -1,080 Descending Houston Center
08:11PM 30.0983 -95.0869 205° Southwest 294 338 10,800 -840 Descending Houston Center
08:12PM 30.0572 -95.1050 201° Southwest 296 341 10,300 -720 Descending Houston Center
08:12PM 30.0203 -95.1211 201° Southwest 299 344 10,100 -300 Descending Houston Center
08:13PM 29.9786 -95.1389 200° South 297 342 10,000 -120 Descending Houston Center
08:13PM 29.9439 -95.1539 201° Southwest 294 338 10,000  Level Houston Center
08:14PM 29.9036 -95.1697 199° South 250 288 10,000 -540 Level Houston Center
08:14PM 29.8769 -95.1822 202° Southwest 259 298 9,500 -1,080 Descending Houston Center
08:15PM 29.8372 -95.1997 201° Southwest 234 269 8,800 -1,020 Descending Houston Center
08:15PM 29.8172 -95.2081 200° South 232 267 8,500 -1,020 Descending Houston Center
08:16PM 29.7767 -95.2264 201° Southwest 222 255 7,800 -1,080 Descending Houston Center
08:16PM 29.7600 -95.2328 198° South 224 258 7,400 -1,020 Descending Houston Center
08:17PM 29.7239 -95.2472 199° South 217 250 6,900 -780 Descending Houston Center
08:17PM 29.7067 -95.2614 216° Southwest 222 255 6,600 -900 Descending Houston Center
08:18PM 29.7086 -95.3092 273° West 250 288 6,000 -1,200 Descending Houston Center
08:18PM 29.7181 -95.3525 284° West 246 283 5,400 -1,140 Descending Houston Center
08:19PM 29.7197 -95.3847 273° West 241 277 4,900 -1,080 Descending Houston Center
08:19PM 29.7225 -95.4297 274° West 244 281 4,300 -1,020 Descending Houston Center
08:20PM 29.7375 -95.4644 296° West 250 288 3,900 -1,080 Descending Houston Center
08:20PM 29.7717 -95.4706 351° North 262 302 3,200 -1,620 Descending Houston Center
08:21PM 29.7881 -95.4417 57° Northeast 240 276 2,300 -1,320 Descending Houston Center
08:21PM 29.7689 -95.4211 137° Southeast 223 257 1,900 -300 Descending Houston Center
08:22PM 29.7489 -95.4031 142° Southeast 164 189 2,000 60 Climbing Houston Center
08:22PM 29.7331 -95.3853 136° Southeast 188 216 2,000 -240 Level Houston Center
08:23PM 29.7133 -95.3592 131° Southeast 159 183 1,800 -540 Descending Houston Center
08:23PM 29.7025 -95.3475 137° Southeast 172 198 1,500 -660 Descending Houston Center
08:24PM 29.6897 -95.3331 136° Southeast 129 148 1,200 -840 Descending Houston Center
08:25PM 29.6733 -95.3128 133° Southeast 146 168 700 -720 Descending Houston Center
08:25PM 29.6617 -95.3003 137° Southeast 127 146 400 -660 Descending Houston Center